sensor_id;sensor_type;location;lat;lon;timestamp;P1;durP1;ratioP1;P2;durP2;ratioP2
76714;SDS011;65644;44.990;20.288;2023-03-01T00:02:00;94.57;;;39.80;;
76714;SDS011;65644;44.990;20.288;2023-03-01T00:04:27;95.20;;;40.60;;
76714;SDS011;65644;44.990;20.288;2023-03-01T00:06:53;101.53;;;41.33;;
76714;SDS011;65644;44.990;20.288;2023-03-01T00:09:19;93.77;;;41.57;;
76714;SDS011;65644;44.990;20.288;2023-03-01T00:11:45;93.30;;;39.47;;
76714;SDS011;65644;44.990;20.288;2023-03-01T00:14:11;87.30;;;39.10;;
76714;SDS011;65644;44.990;20.288;2023-03-01T00:16:41;94.30;;;42.67;;
76714;SDS011;65644;44.990;20.288;2023-03-01T00:19:09;91.13;;;42.03;;
76714;SDS011;65644;44.990;20.288;2023-03-01T00:21:35;87.53;;;40.90;;
76714;SDS011;65644;44.990;20.288;2023-03-01T00:24:02;89.00;;;43.20;;
76714;SDS011;65644;44.990;20.288;2023-03-01T00:26:28;82.17;;;42.00;;
76714;SDS011;65644;44.990;20.288;2023-03-01T00:28:54;83.40;;;42.23;;
76714;SDS011;65644;44.990;20.288;2023-03-01T00:31:22;82.10;;;42.37;;
76714;SDS011;65644;44.990;20.288;2023-03-01T00:33:48;81.40;;;41.50;;
76714;SDS011;65644;44.990;20.288;2023-03-01T00:36:17;81.57;;;42.60;;
76714;SDS011;65644;44.990;20.288;2023-03-01T00:38:44;78.22;;;41.30;;
76714;SDS011;65644;44.990;20.288;2023-03-01T00:41:11;80.33;;;43.53;;
76714;SDS011;65644;44.990;20.288;2023-03-01T00:43:37;79.47;;;41.80;;
76714;SDS011;65644;44.990;20.288;2023-03-01T00:46:04;75.13;;;40.90;;
76714;SDS011;65644;44.990;20.288;2023-03-01T00:48:31;79.90;;;41.57;;
76714;SDS011;65644;44.990;20.288;2023-03-01T00:50:57;76.50;;;39.50;;
76714;SDS011;65644;44.990;20.288;2023-03-01T00:53:23;80.73;;;41.20;;
76714;SDS011;65644;44.990;20.288;2023-03-01T00:55:49;77.57;;;41.33;;
76714;SDS011;65644;44.990;20.288;2023-03-01T00:58:15;79.57;;;41.50;;
76714;SDS011;65644;44.990;20.288;2023-03-01T01:00:41;78.17;;;41.77;;
76714;SDS011;65644;44.990;20.288;2023-03-01T01:03:07;78.93;;;42.60;;
76714;SDS011;65644;44.990;20.288;2023-03-01T01:05:34;73.33;;;41.40;;
76714;SDS011;65644;44.990;20.288;2023-03-01T01:08:00;72.80;;;40.63;;
76714;SDS011;65644;44.990;20.288;2023-03-01T01:10:26;75.63;;;41.27;;
76714;SDS011;65644;44.990;20.288;2023-03-01T01:12:52;75.40;;;41.80;;
76714;SDS011;65644;44.990;20.288;2023-03-01T01:15:18;77.90;;;42.07;;
76714;SDS011;65644;44.990;20.288;2023-03-01T01:17:44;72.70;;;39.70;;
76714;SDS011;65644;44.990;20.288;2023-03-01T01:20:11;73.70;;;40.67;;
76714;SDS011;65644;44.990;20.288;2023-03-01T01:22:37;76.20;;;41.97;;
76714;SDS011;65644;44.990;20.288;2023-03-01T01:25:03;75.80;;;41.57;;
76714;SDS011;65644;44.990;20.288;2023-03-01T01:27:29;72.00;;;41.07;;
76714;SDS011;65644;44.990;20.288;2023-03-01T01:29:55;78.33;;;43.00;;
76714;SDS011;65644;44.990;20.288;2023-03-01T01:32:21;74.00;;;41.20;;
76714;SDS011;65644;44.990;20.288;2023-03-01T01:34:48;70.83;;;41.30;;
76714;SDS011;65644;44.990;20.288;2023-03-01T01:37:14;77.63;;;42.73;;
76714;SDS011;65644;44.990;20.288;2023-03-01T01:39:40;75.33;;;41.47;;
76714;SDS011;65644;44.990;20.288;2023-03-01T01:42:06;69.30;;;39.03;;
76714;SDS011;65644;44.990;20.288;2023-03-01T01:44:32;75.33;;;41.73;;
76714;SDS011;65644;44.990;20.288;2023-03-01T01:47:04;74.43;;;41.63;;
76714;SDS011;65644;44.990;20.288;2023-03-01T01:49:35;77.57;;;43.07;;
76714;SDS011;65644;44.990;20.288;2023-03-01T01:54:35;76.60;;;42.17;;
76714;SDS011;65644;44.990;20.288;2023-03-01T01:57:05;80.93;;;42.53;;
76714;SDS011;65644;44.990;20.288;2023-03-01T01:59:32;78.53;;;42.30;;
76714;SDS011;65644;44.990;20.288;2023-03-01T02:02:00;76.03;;;43.07;;
76714;SDS011;65644;44.990;20.288;2023-03-01T02:04:27;77.43;;;42.00;;
76714;SDS011;65644;44.990;20.288;2023-03-01T02:06:55;75.37;;;40.37;;
76714;SDS011;65644;44.990;20.288;2023-03-01T02:09:23;73.97;;;42.47;;
76714;SDS011;65644;44.990;20.288;2023-03-01T02:11:50;80.43;;;43.23;;
76714;SDS011;65644;44.990;20.288;2023-03-01T02:14:17;76.47;;;42.43;;
76714;SDS011;65644;44.990;20.288;2023-03-01T02:16:43;78.13;;;42.97;;
76714;SDS011;65644;44.990;20.288;2023-03-01T02:19:10;75.50;;;41.60;;
76714;SDS011;65644;44.990;20.288;2023-03-01T02:21:45;71.47;;;42.20;;
76714;SDS011;65644;44.990;20.288;2023-03-01T02:24:18;74.80;;;41.20;;
76714;SDS011;65644;44.990;20.288;2023-03-01T02:26:46;71.90;;;42.80;;
76714;SDS011;65644;44.990;20.288;2023-03-01T02:29:14;75.10;;;41.33;;
76714;SDS011;65644;44.990;20.288;2023-03-01T02:31:41;63.37;;;37.67;;
76714;SDS011;65644;44.990;20.288;2023-03-01T02:34:08;68.53;;;40.67;;
76714;SDS011;65644;44.990;20.288;2023-03-01T02:36:35;68.50;;;38.90;;
76714;SDS011;65644;44.990;20.288;2023-03-01T02:39:02;66.60;;;40.93;;
76714;SDS011;65644;44.990;20.288;2023-03-01T02:41:31;67.03;;;39.70;;
76714;SDS011;65644;44.990;20.288;2023-03-01T02:43:57;73.33;;;40.97;;
76714;SDS011;65644;44.990;20.288;2023-03-01T02:46:24;72.53;;;41.53;;
76714;SDS011;65644;44.990;20.288;2023-03-01T02:48:54;70.03;;;40.27;;
76714;SDS011;65644;44.990;20.288;2023-03-01T02:56:25;69.03;;;39.47;;
76714;SDS011;65644;44.990;20.288;2023-03-01T02:58:51;67.37;;;40.93;;
76714;SDS011;65644;44.990;20.288;2023-03-01T03:01:18;66.97;;;40.97;;
76714;SDS011;65644;44.990;20.288;2023-03-01T03:03:44;65.30;;;38.97;;
76714;SDS011;65644;44.990;20.288;2023-03-01T03:06:10;67.60;;;40.30;;
76714;SDS011;65644;44.990;20.288;2023-03-01T03:08:36;66.37;;;38.93;;
76714;SDS011;65644;44.990;20.288;2023-03-01T03:11:02;68.67;;;39.33;;
76714;SDS011;65644;44.990;20.288;2023-03-01T03:13:28;68.10;;;38.90;;
76714;SDS011;65644;44.990;20.288;2023-03-01T03:15:55;71.00;;;39.33;;
76714;SDS011;65644;44.990;20.288;2023-03-01T03:18:21;62.00;;;37.20;;
76714;SDS011;65644;44.990;20.288;2023-03-01T03:20:50;62.93;;;37.93;;
76714;SDS011;65644;44.990;20.288;2023-03-01T03:23:18;62.90;;;37.73;;
76714;SDS011;65644;44.990;20.288;2023-03-01T03:25:44;63.00;;;39.17;;
76714;SDS011;65644;44.990;20.288;2023-03-01T03:28:10;61.87;;;37.00;;
76714;SDS011;65644;44.990;20.288;2023-03-01T03:30:37;59.40;;;37.20;;
76714;SDS011;65644;44.990;20.288;2023-03-01T03:33:04;61.17;;;37.07;;
76714;SDS011;65644;44.990;20.288;2023-03-01T03:35:37;58.90;;;36.73;;
76714;SDS011;65644;44.990;20.288;2023-03-01T03:38:05;64.70;;;38.53;;
76714;SDS011;65644;44.990;20.288;2023-03-01T03:40:40;63.50;;;38.63;;
76714;SDS011;65644;44.990;20.288;2023-03-01T03:43:07;67.23;;;37.97;;
76714;SDS011;65644;44.990;20.288;2023-03-01T03:45:34;66.03;;;39.00;;
76714;SDS011;65644;44.990;20.288;2023-03-01T03:48:00;64.40;;;39.30;;
76714;SDS011;65644;44.990;20.288;2023-03-01T03:50:26;64.30;;;38.20;;
76714;SDS011;65644;44.990;20.288;2023-03-01T03:52:53;65.30;;;39.10;;
76714;SDS011;65644;44.990;20.288;2023-03-01T03:55:19;62.37;;;37.93;;
76714;SDS011;65644;44.990;20.288;2023-03-01T03:57:45;64.17;;;37.67;;
76714;SDS011;65644;44.990;20.288;2023-03-01T04:00:19;62.80;;;37.87;;
76714;SDS011;65644;44.990;20.288;2023-03-01T04:02:46;61.70;;;36.83;;
76714;SDS011;65644;44.990;20.288;2023-03-01T04:05:13;61.50;;;36.47;;
76714;SDS011;65644;44.990;20.288;2023-03-01T04:07:39;63.57;;;38.57;;
76714;SDS011;65644;44.990;20.288;2023-03-01T04:10:07;63.20;;;36.97;;
76714;SDS011;65644;44.990;20.288;2023-03-01T04:12:34;61.63;;;37.17;;
76714;SDS011;65644;44.990;20.288;2023-03-01T04:15:00;63.50;;;38.00;;
76714;SDS011;65644;44.990;20.288;2023-03-01T04:17:26;67.47;;;37.00;;
76714;SDS011;65644;44.990;20.288;2023-03-01T04:19:52;60.77;;;36.77;;
76714;SDS011;65644;44.990;20.288;2023-03-01T04:22:18;59.90;;;36.50;;
76714;SDS011;65644;44.990;20.288;2023-03-01T04:24:45;59.37;;;37.03;;
76714;SDS011;65644;44.990;20.288;2023-03-01T04:27:11;62.53;;;36.87;;
76714;SDS011;65644;44.990;20.288;2023-03-01T04:29:37;59.80;;;35.07;;
76714;SDS011;65644;44.990;20.288;2023-03-01T04:32:03;57.00;;;36.03;;
76714;SDS011;65644;44.990;20.288;2023-03-01T04:34:30;59.40;;;36.80;;
76714;SDS011;65644;44.990;20.288;2023-03-01T04:36:56;57.23;;;34.90;;
76714;SDS011;65644;44.990;20.288;2023-03-01T04:39:22;59.13;;;36.03;;
76714;SDS011;65644;44.990;20.288;2023-03-01T04:41:48;60.83;;;36.63;;
76714;SDS011;65644;44.990;20.288;2023-03-01T04:44:14;61.77;;;36.93;;
76714;SDS011;65644;44.990;20.288;2023-03-01T04:46:40;58.17;;;35.63;;
76714;SDS011;65644;44.990;20.288;2023-03-01T04:49:06;61.50;;;36.73;;
76714;SDS011;65644;44.990;20.288;2023-03-01T04:51:32;60.03;;;36.50;;
76714;SDS011;65644;44.990;20.288;2023-03-01T04:53:58;62.63;;;37.67;;
76714;SDS011;65644;44.990;20.288;2023-03-01T04:56:25;62.20;;;37.17;;
76714;SDS011;65644;44.990;20.288;2023-03-01T04:58:54;61.60;;;37.60;;
76714;SDS011;65644;44.990;20.288;2023-03-01T05:01:20;63.00;;;36.80;;
76714;SDS011;65644;44.990;20.288;2023-03-01T05:03:48;63.10;;;37.57;;
76714;SDS011;65644;44.990;20.288;2023-03-01T05:06:14;65.60;;;37.90;;
76714;SDS011;65644;44.990;20.288;2023-03-01T05:08:41;61.23;;;37.23;;
76714;SDS011;65644;44.990;20.288;2023-03-01T05:11:08;61.63;;;36.77;;
76714;SDS011;65644;44.990;20.288;2023-03-01T05:13:38;60.83;;;35.57;;
76714;SDS011;65644;44.990;20.288;2023-03-01T05:16:05;64.00;;;38.47;;
76714;SDS011;65644;44.990;20.288;2023-03-01T05:18:32;61.53;;;36.57;;
76714;SDS011;65644;44.990;20.288;2023-03-01T05:21:02;64.93;;;38.67;;
76714;SDS011;65644;44.990;20.288;2023-03-01T05:23:29;62.53;;;38.70;;
76714;SDS011;65644;44.990;20.288;2023-03-01T05:25:58;60.10;;;37.13;;
76714;SDS011;65644;44.990;20.288;2023-03-01T05:28:25;65.17;;;38.10;;
76714;SDS011;65644;44.990;20.288;2023-03-01T05:30:51;62.50;;;38.03;;
76714;SDS011;65644;44.990;20.288;2023-03-01T05:33:17;64.80;;;37.93;;
76714;SDS011;65644;44.990;20.288;2023-03-01T05:35:44;62.27;;;37.57;;
76714;SDS011;65644;44.990;20.288;2023-03-01T05:38:11;64.93;;;39.10;;
76714;SDS011;65644;44.990;20.288;2023-03-01T05:40:38;64.13;;;37.97;;
76714;SDS011;65644;44.990;20.288;2023-03-01T05:43:05;62.78;;;38.70;;
76714;SDS011;65644;44.990;20.288;2023-03-01T05:45:31;64.03;;;37.93;;
76714;SDS011;65644;44.990;20.288;2023-03-01T05:47:57;63.97;;;38.43;;
76714;SDS011;65644;44.990;20.288;2023-03-01T05:50:27;66.27;;;40.37;;
76714;SDS011;65644;44.990;20.288;2023-03-01T05:52:57;67.43;;;40.00;;
76714;SDS011;65644;44.990;20.288;2023-03-01T05:55:24;67.20;;;41.80;;
76714;SDS011;65644;44.990;20.288;2023-03-01T05:57:50;75.80;;;46.13;;
76714;SDS011;65644;44.990;20.288;2023-03-01T06:00:17;78.80;;;47.80;;
76714;SDS011;65644;44.990;20.288;2023-03-01T06:02:44;85.70;;;51.30;;
76714;SDS011;65644;44.990;20.288;2023-03-01T06:05:11;89.57;;;52.58;;
76714;SDS011;65644;44.990;20.288;2023-03-01T06:07:37;80.57;;;49.07;;
76714;SDS011;65644;44.990;20.288;2023-03-01T06:10:04;81.43;;;47.87;;
76714;SDS011;65644;44.990;20.288;2023-03-01T06:12:31;81.10;;;46.27;;
76714;SDS011;65644;44.990;20.288;2023-03-01T06:14:58;76.53;;;45.53;;
76714;SDS011;65644;44.990;20.288;2023-03-01T06:17:24;70.20;;;42.05;;
76714;SDS011;65644;44.990;20.288;2023-03-01T06:19:50;70.47;;;41.77;;
76714;SDS011;65644;44.990;20.288;2023-03-01T06:22:16;68.40;;;41.60;;
76714;SDS011;65644;44.990;20.288;2023-03-01T06:24:42;68.43;;;41.33;;
76714;SDS011;65644;44.990;20.288;2023-03-01T06:27:08;67.97;;;43.10;;
76714;SDS011;65644;44.990;20.288;2023-03-01T06:29:34;79.38;;;46.28;;
76714;SDS011;65644;44.990;20.288;2023-03-01T06:32:00;88.03;;;53.37;;
76714;SDS011;65644;44.990;20.288;2023-03-01T06:34:26;83.43;;;49.60;;
76714;SDS011;65644;44.990;20.288;2023-03-01T06:36:52;76.38;;;47.50;;
76714;SDS011;65644;44.990;20.288;2023-03-01T06:39:18;76.20;;;45.60;;
76714;SDS011;65644;44.990;20.288;2023-03-01T06:41:44;69.67;;;43.33;;
76714;SDS011;65644;44.990;20.288;2023-03-01T06:44:11;75.20;;;45.17;;
76714;SDS011;65644;44.990;20.288;2023-03-01T06:46:38;72.43;;;45.33;;
76714;SDS011;65644;44.990;20.288;2023-03-01T06:49:04;94.47;;;58.40;;
76714;SDS011;65644;44.990;20.288;2023-03-01T06:51:34;83.93;;;52.37;;
76714;SDS011;65644;44.990;20.288;2023-03-01T06:54:00;99.35;;;61.60;;
76714;SDS011;65644;44.990;20.288;2023-03-01T06:56:26;99.53;;;60.50;;
76714;SDS011;65644;44.990;20.288;2023-03-01T06:58:52;71.95;;;44.90;;
76714;SDS011;65644;44.990;20.288;2023-03-01T07:01:18;70.88;;;43.63;;
76714;SDS011;65644;44.990;20.288;2023-03-01T07:03:44;63.03;;;40.95;;
76714;SDS011;65644;44.990;20.288;2023-03-01T07:06:11;65.35;;;40.38;;
76714;SDS011;65644;44.990;20.288;2023-03-01T07:08:37;63.90;;;38.57;;
76714;SDS011;65644;44.990;20.288;2023-03-01T07:11:03;57.65;;;34.25;;
76714;SDS011;65644;44.990;20.288;2023-03-01T07:13:29;59.63;;;36.83;;
76714;SDS011;65644;44.990;20.288;2023-03-01T07:15:55;56.25;;;35.42;;
76714;SDS011;65644;44.990;20.288;2023-03-01T07:18:21;54.08;;;33.88;;
76714;SDS011;65644;44.990;20.288;2023-03-01T07:20:47;54.80;;;33.58;;
76714;SDS011;65644;44.990;20.288;2023-03-01T07:23:13;57.33;;;35.55;;
76714;SDS011;65644;44.990;20.288;2023-03-01T07:25:40;51.78;;;32.20;;
76714;SDS011;65644;44.990;20.288;2023-03-01T07:28:06;59.53;;;36.42;;
76714;SDS011;65644;44.990;20.288;2023-03-01T07:30:32;58.85;;;37.15;;
76714;SDS011;65644;44.990;20.288;2023-03-01T07:32:58;46.85;;;30.50;;
76714;SDS011;65644;44.990;20.288;2023-03-01T07:35:25;50.03;;;32.03;;
76714;SDS011;65644;44.990;20.288;2023-03-01T07:37:51;48.10;;;30.70;;
76714;SDS011;65644;44.990;20.288;2023-03-01T07:40:18;54.15;;;33.17;;
76714;SDS011;65644;44.990;20.288;2023-03-01T07:42:44;48.97;;;31.60;;
76714;SDS011;65644;44.990;20.288;2023-03-01T07:45:10;50.45;;;31.83;;
76714;SDS011;65644;44.990;20.288;2023-03-01T07:47:37;41.17;;;27.05;;
76714;SDS011;65644;44.990;20.288;2023-03-01T07:50:03;42.50;;;28.10;;
76714;SDS011;65644;44.990;20.288;2023-03-01T07:52:30;40.50;;;26.85;;
76714;SDS011;65644;44.990;20.288;2023-03-01T07:54:56;43.08;;;28.08;;
76714;SDS011;65644;44.990;20.288;2023-03-01T07:57:22;47.80;;;29.55;;
76714;SDS011;65644;44.990;20.288;2023-03-01T07:59:48;43.17;;;29.10;;
76714;SDS011;65644;44.990;20.288;2023-03-01T08:02:14;52.97;;;33.72;;
76714;SDS011;65644;44.990;20.288;2023-03-01T08:04:41;43.15;;;28.58;;
76714;SDS011;65644;44.990;20.288;2023-03-01T08:07:07;45.40;;;28.58;;
76714;SDS011;65644;44.990;20.288;2023-03-01T08:09:34;42.03;;;27.45;;
76714;SDS011;65644;44.990;20.288;2023-03-01T08:12:01;46.30;;;29.13;;
76714;SDS011;65644;44.990;20.288;2023-03-01T08:14:29;42.42;;;26.65;;
76714;SDS011;65644;44.990;20.288;2023-03-01T08:16:55;38.85;;;25.50;;
76714;SDS011;65644;44.990;20.288;2023-03-01T08:19:21;40.40;;;27.45;;
76714;SDS011;65644;44.990;20.288;2023-03-01T08:21:47;43.03;;;29.25;;
76714;SDS011;65644;44.990;20.288;2023-03-01T08:24:13;40.63;;;27.48;;
76714;SDS011;65644;44.990;20.288;2023-03-01T08:26:39;37.75;;;25.02;;
76714;SDS011;65644;44.990;20.288;2023-03-01T08:29:05;34.28;;;23.42;;
76714;SDS011;65644;44.990;20.288;2023-03-01T08:31:33;30.98;;;22.58;;
76714;SDS011;65644;44.990;20.288;2023-03-01T08:34:00;33.25;;;20.05;;
76714;SDS011;65644;44.990;20.288;2023-03-01T08:36:27;31.35;;;20.42;;
76714;SDS011;65644;44.990;20.288;2023-03-01T08:38:54;30.58;;;20.77;;
76714;SDS011;65644;44.990;20.288;2023-03-01T08:41:20;29.95;;;19.83;;
76714;SDS011;65644;44.990;20.288;2023-03-01T08:43:46;29.00;;;19.73;;
76714;SDS011;65644;44.990;20.288;2023-03-01T08:46:12;33.17;;;21.25;;
76714;SDS011;65644;44.990;20.288;2023-03-01T08:48:39;33.55;;;22.90;;
76714;SDS011;65644;44.990;20.288;2023-03-01T08:51:08;34.30;;;21.67;;
76714;SDS011;65644;44.990;20.288;2023-03-01T08:53:35;38.67;;;24.98;;
76714;SDS011;65644;44.990;20.288;2023-03-01T08:56:01;43.72;;;26.98;;
76714;SDS011;65644;44.990;20.288;2023-03-01T08:58:27;67.72;;;38.00;;
76714;SDS011;65644;44.990;20.288;2023-03-01T09:00:54;111.25;;;57.03;;
76714;SDS011;65644;44.990;20.288;2023-03-01T09:03:21;148.10;;;74.68;;
76714;SDS011;65644;44.990;20.288;2023-03-01T09:05:48;132.73;;;65.88;;
76714;SDS011;65644;44.990;20.288;2023-03-01T09:08:16;185.40;;;81.45;;
76714;SDS011;65644;44.990;20.288;2023-03-01T09:10:42;244.18;;;98.93;;
76714;SDS011;65644;44.990;20.288;2023-03-01T09:13:08;317.63;;;128.93;;
76714;SDS011;65644;44.990;20.288;2023-03-01T09:15:36;144.68;;;69.53;;
76714;SDS011;65644;44.990;20.288;2023-03-01T09:18:02;138.52;;;60.47;;
76714;SDS011;65644;44.990;20.288;2023-03-01T09:20:29;54.97;;;29.38;;
76714;SDS011;65644;44.990;20.288;2023-03-01T09:22:55;76.93;;;43.75;;
76714;SDS011;65644;44.990;20.288;2023-03-01T09:25:21;63.50;;;37.75;;
76714;SDS011;65644;44.990;20.288;2023-03-01T09:27:50;81.60;;;45.30;;
76714;SDS011;65644;44.990;20.288;2023-03-01T09:30:16;90.80;;;46.92;;
76714;SDS011;65644;44.990;20.288;2023-03-01T09:32:42;65.47;;;37.88;;
76714;SDS011;65644;44.990;20.288;2023-03-01T09:35:09;65.03;;;36.33;;
76714;SDS011;65644;44.990;20.288;2023-03-01T09:37:36;75.22;;;41.00;;
76714;SDS011;65644;44.990;20.288;2023-03-01T09:40:12;65.88;;;35.33;;
76714;SDS011;65644;44.990;20.288;2023-03-01T09:42:45;43.65;;;25.65;;
76714;SDS011;65644;44.990;20.288;2023-03-01T09:45:14;45.60;;;27.10;;
76714;SDS011;65644;44.990;20.288;2023-03-01T09:47:45;43.63;;;26.02;;
76714;SDS011;65644;44.990;20.288;2023-03-01T09:52:41;42.88;;;23.25;;
76714;SDS011;65644;44.990;20.288;2023-03-01T09:55:08;48.65;;;27.67;;
76714;SDS011;65644;44.990;20.288;2023-03-01T09:57:38;56.03;;;24.75;;
76714;SDS011;65644;44.990;20.288;2023-03-01T10:02:41;14.10;;;9.32;;
76714;SDS011;65644;44.990;20.288;2023-03-01T10:10:31;10.82;;;7.05;;
76714;SDS011;65644;44.990;20.288;2023-03-01T10:12:58;15.40;;;7.95;;
76714;SDS011;65644;44.990;20.288;2023-03-01T10:15:30;9.07;;;6.47;;
76714;SDS011;65644;44.990;20.288;2023-03-01T10:18:20;17.55;;;9.30;;
76714;SDS011;65644;44.990;20.288;2023-03-01T10:30:40;17.20;;;10.27;;
76714;SDS011;65644;44.990;20.288;2023-03-01T10:33:25;13.43;;;6.07;;
76714;SDS011;65644;44.990;20.288;2023-03-01T10:35:52;19.23;;;10.55;;
76714;SDS011;65644;44.990;20.288;2023-03-01T10:38:19;18.58;;;10.63;;
76714;SDS011;65644;44.990;20.288;2023-03-01T10:40:54;15.70;;;8.68;;
76714;SDS011;65644;44.990;20.288;2023-03-01T10:43:24;13.30;;;7.50;;
76714;SDS011;65644;44.990;20.288;2023-03-01T10:45:51;67.20;;;14.40;;
76714;SDS011;65644;44.990;20.288;2023-03-01T10:48:20;28.88;;;11.27;;
76714;SDS011;65644;44.990;20.288;2023-03-01T10:51:12;21.88;;;10.73;;
76714;SDS011;65644;44.990;20.288;2023-03-01T10:53:48;13.82;;;7.13;;
76714;SDS011;65644;44.990;20.288;2023-03-01T10:56:16;13.88;;;8.52;;
76714;SDS011;65644;44.990;20.288;2023-03-01T10:59:02;21.98;;;10.65;;
76714;SDS011;65644;44.990;20.288;2023-03-01T11:01:30;11.65;;;6.43;;
76714;SDS011;65644;44.990;20.288;2023-03-01T11:06:29;38.67;;;17.90;;
76714;SDS011;65644;44.990;20.288;2023-03-01T11:08:55;8.10;;;4.85;;
76714;SDS011;65644;44.990;20.288;2023-03-01T11:13:52;23.98;;;12.35;;
76714;SDS011;65644;44.990;20.288;2023-03-01T11:16:28;33.80;;;16.33;;
76714;SDS011;65644;44.990;20.288;2023-03-01T11:18:56;30.35;;;13.48;;
76714;SDS011;65644;44.990;20.288;2023-03-01T11:21:22;58.92;;;23.27;;
76714;SDS011;65644;44.990;20.288;2023-03-01T11:23:48;30.65;;;13.70;;
76714;SDS011;65644;44.990;20.288;2023-03-01T11:26:15;24.15;;;11.40;;
76714;SDS011;65644;44.990;20.288;2023-03-01T11:28:41;37.20;;;16.33;;
76714;SDS011;65644;44.990;20.288;2023-03-01T11:31:08;20.33;;;9.77;;
76714;SDS011;65644;44.990;20.288;2023-03-01T11:33:48;33.33;;;13.60;;
76714;SDS011;65644;44.990;20.288;2023-03-01T11:36:27;42.05;;;18.02;;
76714;SDS011;65644;44.990;20.288;2023-03-01T11:38:55;78.10;;;32.65;;
76714;SDS011;65644;44.990;20.288;2023-03-01T11:41:23;50.15;;;21.27;;
76714;SDS011;65644;44.990;20.288;2023-03-01T11:43:52;45.28;;;17.40;;
76714;SDS011;65644;44.990;20.288;2023-03-01T11:49:00;54.75;;;20.60;;
76714;SDS011;65644;44.990;20.288;2023-03-01T11:51:41;26.77;;;11.73;;
76714;SDS011;65644;44.990;20.288;2023-03-01T11:56:57;44.90;;;20.58;;
76714;SDS011;65644;44.990;20.288;2023-03-01T12:04:59;33.28;;;15.48;;
76714;SDS011;65644;44.990;20.288;2023-03-01T12:12:33;16.20;;;7.85;;
76714;SDS011;65644;44.990;20.288;2023-03-01T12:20:17;28.58;;;13.88;;
76714;SDS011;65644;44.990;20.288;2023-03-01T12:51:23;12.15;;;7.20;;
76714;SDS011;65644;44.990;20.288;2023-03-01T12:53:50;10.90;;;7.22;;
76714;SDS011;65644;44.990;20.288;2023-03-01T12:56:17;14.80;;;9.07;;
76714;SDS011;65644;44.990;20.288;2023-03-01T12:58:51;14.73;;;8.77;;
76714;SDS011;65644;44.990;20.288;2023-03-01T13:01:33;14.30;;;7.70;;
76714;SDS011;65644;44.990;20.288;2023-03-01T13:04:08;9.80;;;6.15;;
76714;SDS011;65644;44.990;20.288;2023-03-01T13:06:44;11.30;;;6.65;;
76714;SDS011;65644;44.990;20.288;2023-03-01T13:14:53;9.93;;;6.80;;
76714;SDS011;65644;44.990;20.288;2023-03-01T13:17:29;7.38;;;6.30;;
76714;SDS011;65644;44.990;20.288;2023-03-01T13:19:56;9.48;;;6.47;;
76714;SDS011;65644;44.990;20.288;2023-03-01T13:22:29;10.45;;;6.50;;
76714;SDS011;65644;44.990;20.288;2023-03-01T13:25:11;8.13;;;5.45;;
76714;SDS011;65644;44.990;20.288;2023-03-01T13:27:38;7.10;;;4.55;;
76714;SDS011;65644;44.990;20.288;2023-03-01T13:30:11;11.30;;;5.75;;
76714;SDS011;65644;44.990;20.288;2023-03-01T13:32:50;6.70;;;4.65;;
76714;SDS011;65644;44.990;20.288;2023-03-01T13:37:45;10.13;;;5.30;;
76714;SDS011;65644;44.990;20.288;2023-03-01T13:42:45;9.85;;;5.30;;
76714;SDS011;65644;44.990;20.288;2023-03-01T13:47:43;6.10;;;4.60;;
76714;SDS011;65644;44.990;20.288;2023-03-01T13:50:18;6.30;;;4.38;;
76714;SDS011;65644;44.990;20.288;2023-03-01T13:53:04;9.52;;;7.25;;
76714;SDS011;65644;44.990;20.288;2023-03-01T13:58:02;7.90;;;4.22;;
76714;SDS011;65644;44.990;20.288;2023-03-01T14:00:30;8.77;;;5.65;;
76714;SDS011;65644;44.990;20.288;2023-03-01T14:03:04;7.47;;;5.03;;
76714;SDS011;65644;44.990;20.288;2023-03-01T14:05:31;8.25;;;5.00;;
76714;SDS011;65644;44.990;20.288;2023-03-01T14:07:57;7.03;;;4.55;;
76714;SDS011;65644;44.990;20.288;2023-03-01T14:10:25;10.32;;;5.03;;
76714;SDS011;65644;44.990;20.288;2023-03-01T14:18:39;14.15;;;10.77;;
76714;SDS011;65644;44.990;20.288;2023-03-01T14:21:09;19.83;;;15.23;;
76714;SDS011;65644;44.990;20.288;2023-03-01T14:23:35;28.75;;;19.20;;
76714;SDS011;65644;44.990;20.288;2023-03-01T14:26:04;23.92;;;19.65;;
76714;SDS011;65644;44.990;20.288;2023-03-01T14:28:31;24.65;;;15.48;;
76714;SDS011;65644;44.990;20.288;2023-03-01T14:30:59;17.77;;;12.13;;
76714;SDS011;65644;44.990;20.288;2023-03-01T14:36:10;7.45;;;4.85;;
76714;SDS011;65644;44.990;20.288;2023-03-01T14:38:38;4.90;;;4.35;;
76714;SDS011;65644;44.990;20.288;2023-03-01T14:41:08;7.13;;;5.30;;
76714;SDS011;65644;44.990;20.288;2023-03-01T14:43:35;5.35;;;4.47;;
76714;SDS011;65644;44.990;20.288;2023-03-01T14:46:02;6.85;;;5.25;;
76714;SDS011;65644;44.990;20.288;2023-03-01T14:48:28;7.85;;;5.30;;
76714;SDS011;65644;44.990;20.288;2023-03-01T14:50:55;6.38;;;4.47;;
76714;SDS011;65644;44.990;20.288;2023-03-01T14:53:23;8.20;;;5.80;;
76714;SDS011;65644;44.990;20.288;2023-03-01T14:55:50;7.88;;;6.18;;
76714;SDS011;65644;44.990;20.288;2023-03-01T14:58:21;9.52;;;6.30;;
76714;SDS011;65644;44.990;20.288;2023-03-01T15:00:52;9.05;;;6.18;;
76714;SDS011;65644;44.990;20.288;2023-03-01T15:03:31;7.63;;;5.60;;
76714;SDS011;65644;44.990;20.288;2023-03-01T15:06:02;10.18;;;6.53;;
76714;SDS011;65644;44.990;20.288;2023-03-01T15:08:28;9.20;;;5.95;;
76714;SDS011;65644;44.990;20.288;2023-03-01T15:13:31;9.93;;;7.45;;
76714;SDS011;65644;44.990;20.288;2023-03-01T15:16:02;11.95;;;7.38;;
76714;SDS011;65644;44.990;20.288;2023-03-01T15:18:30;11.30;;;6.70;;
76714;SDS011;65644;44.990;20.288;2023-03-01T15:21:04;10.15;;;7.30;;
76714;SDS011;65644;44.990;20.288;2023-03-01T15:23:31;12.57;;;7.20;;
76714;SDS011;65644;44.990;20.288;2023-03-01T15:25:57;10.98;;;7.88;;
76714;SDS011;65644;44.990;20.288;2023-03-01T15:28:28;13.10;;;8.18;;
76714;SDS011;65644;44.990;20.288;2023-03-01T15:31:18;14.02;;;7.63;;
76714;SDS011;65644;44.990;20.288;2023-03-01T15:33:41;11.02;;;7.35;;
76714;SDS011;65644;44.990;20.288;2023-03-01T15:38:57;12.15;;;7.57;;
76714;SDS011;65644;44.990;20.288;2023-03-01T15:43:52;10.00;;;6.80;;
76714;SDS011;65644;44.990;20.288;2023-03-01T15:46:23;11.10;;;7.47;;
76714;SDS011;65644;44.990;20.288;2023-03-01T15:48:52;11.32;;;7.95;;
76714;SDS011;65644;44.990;20.288;2023-03-01T15:51:26;12.68;;;8.40;;
76714;SDS011;65644;44.990;20.288;2023-03-01T15:53:53;11.30;;;7.80;;
76714;SDS011;65644;44.990;20.288;2023-03-01T15:56:19;15.63;;;8.52;;
76714;SDS011;65644;44.990;20.288;2023-03-01T15:58:49;11.98;;;7.10;;
76714;SDS011;65644;44.990;20.288;2023-03-01T16:01:15;12.65;;;7.60;;
76714;SDS011;65644;44.990;20.288;2023-03-01T16:03:42;12.23;;;8.45;;
76714;SDS011;65644;44.990;20.288;2023-03-01T16:06:09;15.40;;;8.82;;
76714;SDS011;65644;44.990;20.288;2023-03-01T16:08:35;12.77;;;8.82;;
76714;SDS011;65644;44.990;20.288;2023-03-01T16:11:02;12.80;;;8.23;;
76714;SDS011;65644;44.990;20.288;2023-03-01T16:13:30;13.52;;;8.05;;